Time;durP1;ratioP1;P1;durP2;ratioP2;P2;SDS_P1;SDS_P2;PMS_P1;PMS_P2;Temp;Humidity;BMP_temperature;BMP_pressure;BME280_temperature;BME280_humidity;BME280_pressure;Samples;Min_cycle;Max_cycle;Signal;HPM_P1;HPM_P2
2022/07/24 00:00:16;;;;;;;4.50;3.22;;;25.00;50.70;;;;;;5111868;28;20047;-81
2022/07/24 00:02:43;;;;;;;4.15;3.50;;;25.00;50.50;;;;;;5099957;28;20066;-80
2022/07/24 00:05:10;;;;;;;3.88;3.15;;;25.00;50.60;;;;;;5091414;28;20412;-80
2022/07/24 00:07:36;;;;;;;4.85;3.65;;;25.00;50.90;;;;;;5108386;28;20024;-80
2022/07/24 00:10:04;;;;;;;4.55;3.65;;;25.00;50.60;;;;;;5091523;28;20028;-80
2022/07/24 00:12:30;;;;;;;5.13;4.18;;;24.90;50.70;;;;;;5091112;28;20137;-80
2022/07/24 00:14:55;;;;;;;7.38;3.95;;;24.90;51.40;;;;;;5092466;28;20099;-80
2022/07/24 00:17:21;;;;;;;4.97;3.50;;;24.90;51.60;;;;;;5093682;28;20020;-80
2022/07/24 00:19:47;;;;;;;5.78;3.95;;;24.90;51.60;;;;;;5095568;28;20024;-80
2022/07/24 00:22:13;;;;;;;5.40;3.72;;;24.90;51.70;;;;;;5096197;28;20079;-81
2022/07/24 00:24:39;;;;;;;3.33;3.03;;;24.80;51.60;;;;;;5095121;28;20111;-80
2022/07/24 00:27:04;;;;;;;4.85;3.38;;;24.80;51.60;;;;;;5095013;28;20027;-80
2022/07/24 00:29:30;;;;;;;4.38;3.50;;;24.80;51.80;;;;;;5096283;28;20393;-81
2022/07/24 00:31:56;;;;;;;4.95;3.60;;;24.70;51.80;;;;;;5098910;28;20020;-81
2022/07/24 00:34:22;;;;;;;4.68;3.30;;;24.70;51.90;;;;;;5104686;28;20496;-81
2022/07/24 00:36:47;;;;;;;3.53;3.17;;;24.60;51.80;;;;;;5094875;28;20031;-81
2022/07/24 00:39:13;;;;;;;4.90;3.92;;;24.60;52.20;;;;;;5096286;28;20055;-82
2022/07/24 00:41:39;;;;;;;6.43;3.72;;;24.50;52.60;;;;;;5094914;28;20049;-80
2022/07/24 00:44:08;;;;;;;4.10;3.42;;;24.50;52.80;;;;;;5096069;28;20520;-80
2022/07/24 00:46:35;;;;;;;6.55;3.85;;;24.40;52.90;;;;;;5095979;28;20100;-81
2022/07/24 00:49:05;;;;;;;3.92;3.47;;;24.40;52.90;;;;;;5096092;28;20473;-83
2022/07/24 00:51:31;;;;;;;6.07;3.72;;;24.40;52.80;;;;;;5094235;28;20051;-80
2022/07/24 00:53:57;;;;;;;4.40;3.92;;;24.30;53.10;;;;;;5095508;28;20020;-81
2022/07/24 00:56:23;;;;;;;4.22;3.60;;;24.30;53.20;;;;;;5111710;28;20031;-82
2022/07/24 00:58:49;;;;;;;4.38;3.58;;;24.20;53.10;;;;;;5095777;28;20027;-80
2022/07/24 01:01:15;;;;;;;7.07;4.07;;;24.20;53.20;;;;;;5096170;28;20024;-82
2022/07/24 01:03:41;;;;;;;5.10;3.22;;;24.20;53.40;;;;;;5114172;28;20016;-81
2022/07/24 01:06:08;;;;;;;5.32;3.92;;;24.10;53.30;;;;;;5116244;28;20028;-80
2022/07/24 01:08:36;;;;;;;4.38;3.50;;;24.10;53.50;;;;;;5114874;28;20062;-80
2022/07/24 01:11:03;;;;;;;7.60;3.60;;;24.10;53.60;;;;;;5114975;28;20020;-80
2022/07/24 01:13:30;;;;;;;4.57;3.60;;;24.10;53.70;;;;;;5112021;28;20024;-82
2022/07/24 01:15:57;;;;;;;4.60;3.88;;;24.00;53.60;;;;;;5094452;28;20477;-82
2022/07/24 01:18:22;;;;;;;4.75;3.45;;;24.00;53.70;;;;;;5095691;28;20020;-81
2022/07/24 01:20:49;;;;;;;4.07;3.65;;;24.00;54.00;;;;;;5094158;28;20382;-80
2022/07/24 01:23:15;;;;;;;3.97;3.35;;;24.00;54.40;;;;;;5095387;28;20035;-81
2022/07/24 01:25:41;;;;;;;4.20;3.80;;;24.00;53.60;;;;;;5094146;28;20028;-82
2022/07/24 01:28:07;;;;;;;3.63;3.28;;;24.00;54.00;;;;;;5095438;28;20069;-81
2022/07/24 01:30:33;;;;;;;4.88;3.78;;;24.00;53.80;;;;;;5094667;28;20028;-81
2022/07/24 01:32:59;;;;;;;3.78;3.35;;;24.00;54.20;;;;;;5095392;28;20036;-81
2022/07/24 01:35:25;;;;;;;6.07;3.88;;;24.00;54.10;;;;;;5110975;28;20031;-82
2022/07/24 01:37:52;;;;;;;4.63;4.13;;;24.00;54.60;;;;;;5093931;28;20103;-82
2022/07/24 01:40:18;;;;;;;5.88;3.50;;;24.00;54.80;;;;;;5095131;28;20496;-82
2022/07/24 01:42:44;;;;;;;5.63;4.05;;;23.90;54.70;;;;;;5095121;28;20028;-82
2022/07/24 01:45:10;;;;;;;4.53;3.35;;;23.90;54.80;;;;;;5093991;28;20027;-81
2022/07/24 01:47:35;;;;;;;5.53;3.67;;;23.90;54.70;;;;;;5095085;28;20055;-81
2022/07/24 01:50:01;;;;;;;5.93;3.70;;;23.90;54.50;;;;;;5095099;28;20024;-81
2022/07/24 01:52:27;;;;;;;4.32;3.50;;;23.90;54.70;;;;;;5093671;28;20169;-82
2022/07/24 01:54:53;;;;;;;4.25;3.38;;;23.80;54.80;;;;;;5110555;28;20024;-81
2022/07/24 01:57:19;;;;;;;4.90;3.58;;;23.80;54.60;;;;;;5110631;28;20492;-82
2022/07/24 01:59:46;;;;;;;5.13;3.97;;;23.80;54.80;;;;;;5093576;28;20100;-82
2022/07/24 02:02:11;;;;;;;5.57;3.45;;;23.70;54.90;;;;;;5095070;28;20035;-80
2022/07/24 02:04:37;;;;;;;4.90;4.05;;;23.70;54.80;;;;;;5093366;28;20020;-81
2022/07/24 02:07:03;;;;;;;5.45;3.88;;;23.70;54.90;;;;;;5100729;28;20032;-82
2022/07/24 02:09:29;;;;;;;7.18;3.42;;;23.70;55.00;;;;;;5112244;28;20059;-80
2022/07/24 02:11:55;;;;;;;4.78;3.75;;;23.60;55.10;;;;;;5112064;28;20521;-82
2022/07/24 02:14:21;;;;;;;10.80;4.22;;;23.60;55.50;;;;;;5111968;28;20026;-81
2022/07/24 02:16:47;;;;;;;4.95;3.47;;;23.60;55.40;;;;;;5113306;28;20012;-80
2022/07/24 02:19:13;;;;;;;5.50;4.15;;;23.50;55.50;;;;;;5113320;28;20495;-81
2022/07/24 02:21:39;;;;;;;6.07;4.30;;;23.50;55.70;;;;;;5112916;28;20047;-82
2022/07/24 02:24:05;;;;;;;5.30;4.07;;;23.40;55.80;;;;;;5113069;28;20032;-82
2022/07/24 02:26:32;;;;;;;4.35;3.92;;;23.40;55.90;;;;;;5113282;28;20019;-81
2022/07/24 02:28:57;;;;;;;4.90;3.38;;;23.30;56.60;;;;;;5113213;28;20031;-81
2022/07/24 02:31:23;;;;;;;24.15;4.47;;;23.30;56.30;;;;;;5111871;28;20031;-82
2022/07/24 02:33:49;;;;;;;6.32;3.60;;;23.30;56.40;;;;;;5111648;28;20055;-81
2022/07/24 02:36:15;;;;;;;7.70;3.78;;;23.20;56.30;;;;;;5112936;28;20020;-80
2022/07/24 02:38:41;;;;;;;4.38;3.97;;;23.20;56.50;;;;;;5112987;28;20091;-81
2022/07/24 02:41:07;;;;;;;5.53;4.03;;;23.20;57.00;;;;;;5111782;28;20016;-82
2022/07/24 02:43:33;;;;;;;6.18;4.03;;;23.20;57.00;;;;;;5111517;28;20032;-81
2022/07/24 02:45:59;;;;;;;5.05;4.05;;;23.20;57.00;;;;;;5111295;28;20106;-80
2022/07/24 02:48:25;;;;;;;4.38;3.95;;;23.10;57.00;;;;;;5112715;28;20023;-82
2022/07/24 02:50:51;;;;;;;5.72;4.20;;;23.10;57.00;;;;;;5111333;28;20096;-82
2022/07/24 02:53:16;;;;;;;5.43;4.20;;;23.10;57.10;;;;;;5111922;28;20019;-80
2022/07/24 02:55:42;;;;;;;6.22;4.32;;;23.10;57.30;;;;;;5112446;28;20020;-82
2022/07/24 02:58:08;;;;;;;6.07;4.30;;;23.00;57.30;;;;;;5112395;28;20024;-83
2022/07/24 03:00:35;;;;;;;4.60;3.78;;;23.00;57.30;;;;;;5111233;28;20019;-83
2022/07/24 03:03:01;;;;;;;9.65;3.92;;;23.00;57.30;;;;;;5110595;28;20034;-81
2022/07/24 03:05:27;;;;;;;4.15;3.70;;;23.00;57.50;;;;;;5112375;28;20102;-81
2022/07/24 03:07:53;;;;;;;5.18;3.97;;;22.90;57.40;;;;;;5112410;28;20021;-82
2022/07/24 03:10:19;;;;;;;6.65;3.92;;;22.90;57.60;;;;;;5111066;28;20095;-80
2022/07/24 03:12:45;;;;;;;6.38;4.55;;;22.90;57.60;;;;;;5108925;28;20020;-81
2022/07/24 03:15:12;;;;;;;4.88;4.30;;;22.90;57.80;;;;;;5112301;28;20016;-81
2022/07/24 03:17:39;;;;;;;4.85;4.35;;;22.90;57.90;;;;;;5112123;28;20050;-81
2022/07/24 03:20:05;;;;;;;5.57;4.35;;;22.80;57.80;;;;;;5111895;28;20023;-81
2022/07/24 03:22:31;;;;;;;6.85;4.50;;;22.80;58.00;;;;;;5111106;28;20031;-82
2022/07/24 03:24:57;;;;;;;4.38;3.97;;;22.80;58.10;;;;;;5112202;28;20027;-80
2022/07/24 03:27:23;;;;;;;4.28;3.88;;;22.80;57.80;;;;;;5112302;28;20442;-81
2022/07/24 03:29:49;;;;;;;6.22;4.35;;;22.80;58.60;;;;;;5111937;28;20098;-81
2022/07/24 03:32:14;;;;;;;5.78;4.30;;;22.80;58.40;;;;;;5110861;28;20114;-81
2022/07/24 03:34:40;;;;;;;4.72;4.28;;;22.80;58.40;;;;;;5110845;28;20077;-81
2022/07/24 03:37:06;;;;;;;5.45;4.53;;;22.80;58.00;;;;;;5110910;28;20031;-80
2022/07/24 03:39:32;;;;;;;5.20;4.18;;;22.70;58.20;;;;;;5112240;28;20012;-82
2022/07/24 03:41:58;;;;;;;4.30;3.80;;;22.70;58.30;;;;;;5112141;28;20020;-81
2022/07/24 03:44:24;;;;;;;5.63;4.82;;;22.70;58.50;;;;;;5112198;28;20099;-80
2022/07/24 03:46:49;;;;;;;9.00;4.68;;;22.70;58.60;;;;;;5110776;28;20477;-81
2022/07/24 03:49:15;;;;;;;6.60;4.18;;;22.70;58.60;;;;;;5112090;28;20039;-80
2022/07/24 03:51:41;;;;;;;5.32;4.40;;;22.70;58.40;;;;;;5110873;28;20110;-82
2022/07/24 03:54:07;;;;;;;4.97;4.22;;;22.70;58.40;;;;;;5116125;28;20016;-82
2022/07/24 03:56:32;;;;;;;5.43;4.28;;;22.70;58.70;;;;;;5116355;28;20012;-80
2022/07/24 03:58:58;;;;;;;5.88;4.40;;;22.70;58.90;;;;;;5116222;28;20012;-81
2022/07/24 04:01:24;;;;;;;7.13;4.88;;;22.70;58.80;;;;;;5116296;28;20023;-80
2022/07/24 04:03:50;;;;;;;5.60;4.78;;;22.80;59.00;;;;;;5114095;28;20023;-81
2022/07/24 04:06:16;;;;;;;7.32;5.28;;;22.80;59.10;;;;;;5116736;28;20019;-81
2022/07/24 04:08:41;;;;;;;5.40;4.82;;;22.80;59.00;;;;;;5116444;28;20472;-81
2022/07/24 04:11:07;;;;;;;5.65;4.35;;;22.80;58.90;;;;;;5116233;28;20020;-83
2022/07/24 04:13:33;;;;;;;5.53;4.47;;;22.80;58.90;;;;;;5116599;28;20034;-80
2022/07/24 04:16:00;;;;;;;7.00;4.85;;;22.80;58.80;;;;;;5116275;28;20016;-80
2022/07/24 04:18:25;;;;;;;8.63;5.18;;;22.90;59.10;;;;;;5115020;28;20047;-80
2022/07/24 04:20:51;;;;;;;6.32;4.00;;;22.90;59.10;;;;;;5115950;28;20071;-81
2022/07/24 04:23:18;;;;;;;7.05;4.93;;;23.00;58.90;;;;;;5114924;28;20073;-82
2022/07/24 04:25:43;;;;;;;15.43;4.93;;;23.00;59.00;;;;;;5116166;28;20028;-82
2022/07/24 04:28:09;;;;;;;4.50;4.07;;;23.10;58.90;;;;;;5116083;28;20169;-82
2022/07/24 04:30:35;;;;;;;4.80;4.30;;;23.10;58.80;;;;;;5116011;28;20034;-82
2022/07/24 04:33:01;;;;;;;4.75;4.25;;;23.20;58.80;;;;;;5112851;28;20032;-80
2022/07/24 04:35:27;;;;;;;5.82;4.63;;;23.20;58.80;;;;;;5115676;28;20027;-81
2022/07/24 04:37:52;;;;;;;6.03;4.70;;;23.30;58.80;;;;;;5114528;28;20593;-82
2022/07/24 04:40:18;;;;;;;5.28;4.78;;;23.30;58.80;;;;;;5114555;28;20027;-82
2022/07/24 04:42:44;;;;;;;9.60;4.90;;;23.40;58.80;;;;;;5115103;28;20028;-82
2022/07/24 04:45:11;;;;;;;5.07;4.57;;;23.40;58.60;;;;;;5114304;28;20070;-82
2022/07/24 04:47:37;;;;;;;5.65;4.32;;;23.40;58.40;;;;;;5115603;28;20019;-82
2022/07/24 04:50:05;;;;;;;6.25;4.65;;;23.50;58.30;;;;;;5115551;28;20093;-82
2022/07/24 04:52:31;;;;;;;5.05;4.53;;;23.50;58.30;;;;;;5114229;28;20051;-82
2022/07/24 04:54:57;;;;;;;9.90;4.45;;;23.60;58.30;;;;;;5115379;28;20460;-81
2022/07/24 04:57:22;;;;;;;8.65;4.50;;;23.60;58.20;;;;;;5115536;28;20016;-81
2022/07/24 04:59:49;;;;;;;5.47;4.70;;;23.70;58.20;;;;;;5115321;28;20016;-81
2022/07/24 05:02:15;;;;;;;6.32;4.60;;;23.70;58.10;;;;;;5109267;28;20122;-82
2022/07/24 05:04:43;;;;;;;5.65;4.35;;;23.70;57.90;;;;;;5092592;28;20458;-82
2022/07/24 05:07:09;;;;;;;5.65;4.97;;;23.80;57.90;;;;;;5093577;28;20028;-82
2022/07/24 05:09:35;;;;;;;11.55;4.63;;;23.80;57.90;;;;;;5093349;28;20028;-82
2022/07/24 05:12:01;;;;;;;7.18;4.70;;;23.90;57.80;;;;;;5095248;28;20032;-81
2022/07/24 05:14:27;;;;;;;7.30;5.00;;;24.00;57.80;;;;;;5098953;28;20026;-82
2022/07/24 05:16:52;;;;;;;11.07;4.78;;;24.00;57.60;;;;;;5115204;28;20542;-82
2022/07/24 05:19:18;;;;;;;11.93;5.95;;;24.10;57.60;;;;;;5115031;28;20070;-82
2022/07/24 05:21:44;;;;;;;7.10;5.18;;;24.20;57.50;;;;;;5114946;28;20404;-81
2022/07/24 05:24:10;;;;;;;5.85;4.78;;;24.20;57.40;;;;;;5113852;28;20388;-82
2022/07/24 05:26:38;;;;;;;6.95;5.07;;;24.30;57.20;;;;;;5115138;28;20161;-82
2022/07/24 05:29:07;;;;;;;5.18;4.50;;;24.40;57.20;;;;;;5114741;28;20380;-82
2022/07/24 05:31:33;;;;;;;7.22;4.90;;;24.50;57.20;;;;;;5114107;28;20504;-81
2022/07/24 05:34:01;;;;;;;5.18;4.40;;;24.60;57.10;;;;;;5113754;28;20027;-81
2022/07/24 05:36:28;;;;;;;6.53;4.20;;;24.70;57.00;;;;;;5114370;28;20492;-82
2022/07/24 05:38:54;;;;;;;5.22;4.72;;;24.70;56.70;;;;;;5112912;28;20034;-82
2022/07/24 05:41:20;;;;;;;5.28;4.28;;;24.80;56.50;;;;;;5112739;28;20111;-81
2022/07/24 05:43:45;;;;;;;5.30;4.55;;;24.90;56.30;;;;;;5112770;28;20111;-82
2022/07/24 05:46:11;;;;;;;6.20;4.78;;;24.90;56.20;;;;;;5112982;28;20464;-82
2022/07/24 05:48:37;;;;;;;10.77;4.97;;;25.00;56.00;;;;;;5114002;28;20081;-81
2022/07/24 05:51:03;;;;;;;5.47;4.97;;;25.00;55.90;;;;;;5112372;28;20055;-82
2022/07/24 05:53:29;;;;;;;6.40;5.15;;;25.00;55.80;;;;;;5113818;28;20102;-81
2022/07/24 05:55:55;;;;;;;5.85;5.00;;;25.10;55.70;;;;;;5113804;28;20376;-82
2022/07/24 05:58:20;;;;;;;7.07;4.63;;;25.10;55.60;;;;;;5113278;28;20425;-81
2022/07/24 06:00:46;;;;;;;6.80;4.55;;;25.20;56.20;;;;;;5112267;28;20023;-81
2022/07/24 06:03:12;;;;;;;5.75;4.60;;;25.20;55.50;;;;;;5112524;28;20039;-81
2022/07/24 06:05:38;;;;;;;6.75;4.55;;;25.20;55.50;;;;;;5114332;28;20081;-81
2022/07/24 06:08:04;;;;;;;5.47;4.60;;;25.30;55.40;;;;;;5098317;28;20089;-81
2022/07/24 06:10:31;;;;;;;5.25;4.75;;;25.30;55.40;;;;;;5097535;28;20023;-81
2022/07/24 06:12:57;;;;;;;5.05;4.45;;;25.30;55.40;;;;;;5112675;28;20020;-82
2022/07/24 06:15:23;;;;;;;5.88;4.82;;;25.40;55.40;;;;;;5113644;28;20125;-82
2022/07/24 06:17:49;;;;;;;5.85;4.90;;;25.40;55.40;;;;;;5112667;28;20020;-82
2022/07/24 06:20:16;;;;;;;12.35;5.30;;;25.50;55.40;;;;;;5109275;28;20036;-82
2022/07/24 06:22:43;;;;;;;8.00;6.45;;;25.50;55.40;;;;;;5093479;28;20028;-81
2022/07/24 06:25:09;;;;;;;6.45;5.85;;;25.60;54.80;;;;;;5092010;28;20043;-80
2022/07/24 06:27:46;;;;;;;6.38;5.75;;;25.60;54.60;;;;;;5109091;28;20043;-82
2022/07/24 06:30:17;;;;;;;8.77;6.47;;;25.80;54.60;;;;;;5092141;28;20167;-82
2022/07/24 06:32:43;;;;;;;6.10;5.50;;;25.90;54.40;;;;;;5091955;28;20370;-81
2022/07/24 06:35:10;;;;;;;10.10;6.90;;;26.00;54.40;;;;;;5093187;28;20457;-82
2022/07/24 06:37:36;;;;;;;14.25;6.72;;;26.10;54.00;;;;;;5093104;28;20109;-82
2022/07/24 06:40:03;;;;;;;6.57;5.93;;;26.30;53.70;;;;;;5096313;28;20059;-81
2022/07/24 06:42:29;;;;;;;6.50;5.55;;;26.50;53.20;;;;;;5112055;28;20028;-81
2022/07/24 06:44:54;;;;;;;8.50;6.40;;;26.60;53.20;;;;;;5112705;27;20051;-81
2022/07/24 06:47:20;;;;;;;10.50;6.95;;;26.80;52.70;;;;;;5111500;28;20449;-81
2022/07/24 06:49:46;;;;;;;9.85;6.85;;;26.90;51.80;;;;;;5112786;28;20031;-81
2022/07/24 06:52:12;;;;;;;7.80;7.00;;;27.00;50.90;;;;;;5112537;28;20069;-81
2022/07/24 06:54:37;;;;;;;9.05;6.82;;;27.00;50.60;;;;;;5112665;28;20500;-82
2022/07/24 06:57:03;;;;;;;7.18;6.25;;;27.10;50.40;;;;;;5111234;28;20031;-81
2022/07/24 06:59:30;;;;;;;12.20;6.43;;;27.20;50.30;;;;;;5109936;28;20069;-81
2022/07/24 07:01:56;;;;;;;8.43;6.88;;;27.20;50.10;;;;;;5111116;28;20463;-81
2022/07/24 07:04:21;;;;;;;10.52;6.57;;;27.30;49.60;;;;;;5112605;28;20090;-82
2022/07/24 07:06:47;;;;;;;7.00;6.30;;;27.30;50.10;;;;;;5109679;28;20358;-82
2022/07/24 07:09:13;;;;;;;8.10;6.93;;;27.40;50.10;;;;;;5112578;28;20278;-82
2022/07/24 07:11:39;;;;;;;6.82;6.10;;;27.40;47.50;;;;;;5112814;28;20056;-81
2022/07/24 07:14:05;;;;;;;10.23;6.78;;;27.50;47.00;;;;;;5112254;28;20020;-81
2022/07/24 07:16:30;;;;;;;7.60;6.18;;;27.50;46.90;;;;;;5112168;28;20376;-81
2022/07/24 07:18:56;;;;;;;7.55;6.78;;;27.60;47.70;;;;;;5112119;28;20019;-81
2022/07/24 07:21:22;;;;;;;6.80;6.07;;;27.70;46.60;;;;;;5111935;28;20042;-81
2022/07/24 07:23:47;;;;;;;13.13;6.93;;;27.70;47.10;;;;;;5110690;28;20445;-82
2022/07/24 07:26:13;;;;;;;9.30;6.35;;;27.80;46.90;;;;;;5111777;28;20062;-82
2022/07/24 07:28:40;;;;;;;9.07;7.43;;;27.80;47.10;;;;;;5110257;28;20474;-81
2022/07/24 07:31:05;;;;;;;14.80;6.45;;;27.80;46.80;;;;;;5111870;28;20038;-81
2022/07/24 07:33:31;;;;;;;8.32;6.32;;;27.80;47.00;;;;;;5110524;28;20031;-81
2022/07/24 07:35:57;;;;;;;7.20;6.47;;;27.80;47.60;;;;;;5110793;28;20111;-81
2022/07/24 07:38:23;;;;;;;7.40;6.35;;;27.90;47.60;;;;;;5112134;28;20182;-82
2022/07/24 07:40:48;;;;;;;9.63;7.45;;;27.90;47.00;;;;;;5111964;28;20024;-82
2022/07/24 07:43:14;;;;;;;9.60;6.72;;;27.90;46.80;;;;;;5110641;28;20489;-81
2022/07/24 07:45:40;;;;;;;7.00;6.30;;;28.00;47.20;;;;;;5111940;28;20106;-83
2022/07/24 07:48:06;;;;;;;7.15;6.28;;;28.00;47.00;;;;;;5112131;28;20031;-82
2022/07/24 07:50:32;;;;;;;8.80;6.40;;;28.10;47.30;;;;;;5111916;28;20064;-81
2022/07/24 07:52:58;;;;;;;6.78;6.10;;;28.10;47.10;;;;;;5110657;28;20020;-81
2022/07/24 07:55:23;;;;;;;7.85;6.47;;;28.20;47.30;;;;;;5110416;28;20110;-82
2022/07/24 07:57:49;;;;;;;8.32;6.60;;;28.20;47.40;;;;;;5110696;28;20016;-81
2022/07/24 08:00:16;;;;;;;7.80;6.75;;;28.30;47.10;;;;;;5111443;28;20047;-81
2022/07/24 08:02:42;;;;;;;7.60;6.85;;;28.30;47.30;;;;;;5110498;28;20020;-82
2022/07/24 08:05:08;;;;;;;9.75;7.70;;;28.30;47.30;;;;;;5108674;28;20026;-81
2022/07/24 08:07:34;;;;;;;8.20;6.70;;;28.40;47.30;;;;;;5111654;28;20416;-81
2022/07/24 08:10:00;;;;;;;7.55;6.78;;;28.40;47.20;;;;;;5111793;28;20023;-81
2022/07/24 08:12:26;;;;;;;7.88;6.82;;;28.50;47.30;;;;;;5110310;28;20012;-81
2022/07/24 08:14:51;;;;;;;7.80;6.30;;;28.50;47.30;;;;;;5111746;28;20020;-82
2022/07/24 08:17:17;;;;;;;8.30;7.00;;;28.60;47.20;;;;;;5111732;28;20023;-81
2022/07/24 08:19:43;;;;;;;7.07;6.28;;;28.70;46.90;;;;;;5112257;28;20421;-82
2022/07/24 08:22:08;;;;;;;7.13;6.35;;;28.70;46.90;;;;;;5110333;28;20061;-81
2022/07/24 08:24:34;;;;;;;8.13;6.53;;;28.70;46.70;;;;;;5110178;28;20019;-82
2022/07/24 08:27:00;;;;;;;9.85;6.68;;;28.80;46.60;;;;;;5110312;28;20055;-81
2022/07/24 08:29:26;;;;;;;8.73;6.43;;;28.80;46.40;;;;;;5107909;28;20465;-81
2022/07/24 08:31:52;;;;;;;7.40;6.70;;;28.80;46.40;;;;;;5110118;28;20020;-81
2022/07/24 08:34:18;;;;;;;13.10;7.38;;;28.90;45.90;;;;;;5107601;28;20016;-81
2022/07/24 08:36:45;;;;;;;7.97;7.18;;;28.90;45.20;;;;;;5113137;28;20024;-81
2022/07/24 08:39:17;;;;;;;7.10;6.40;;;28.90;45.20;;;;;;5123496;27;20020;-80
2022/07/24 08:41:44;;;;;;;7.38;6.00;;;28.90;45.40;;;;;;5124429;27;20055;-81
2022/07/24 08:44:10;;;;;;;9.23;7.28;;;29.00;45.70;;;;;;5126340;27;20019;-81
2022/07/24 08:46:38;;;;;;;7.38;6.68;;;29.00;45.60;;;;;;5126737;27;20050;-81
2022/07/24 08:49:10;;;;;;;7.68;6.88;;;29.10;45.50;;;;;;5126334;27;20151;-82
2022/07/24 08:51:38;;;;;;;12.50;7.50;;;29.10;45.20;;;;;;5123954;27;20020;-82
2022/07/24 08:54:05;;;;;;;10.40;7.65;;;29.10;44.90;;;;;;5124309;27;20027;-82
2022/07/24 08:56:33;;;;;;;9.38;7.15;;;29.20;45.10;;;;;;5123425;27;20027;-82
2022/07/24 08:58:59;;;;;;;8.52;7.40;;;29.20;45.20;;;;;;5120125;27;20493;-81
2022/07/24 09:01:26;;;;;;;7.53;6.70;;;29.30;44.90;;;;;;5122888;27;20030;-81
2022/07/24 09:03:52;;;;;;;8.30;6.65;;;29.30;45.00;;;;;;5122554;27;20076;-82
2022/07/24 09:06:18;;;;;;;7.55;6.47;;;29.30;45.20;;;;;;5124249;27;20023;-81
2022/07/24 09:08:58;;;;;;;7.40;6.18;;;29.40;45.10;;;;;;5123385;27;20025;-82
2022/07/24 09:11:24;;;;;;;8.05;6.05;;;29.50;45.10;;;;;;5125177;27;20077;-81
2022/07/24 09:16:36;;;;;;;6.93;6.22;;;29.50;44.40;;;;;;5121364;27;20030;-81
2022/07/24 09:19:09;;;;;;;15.30;6.88;;;29.50;43.80;;;;;;5124517;27;20035;-81
2022/07/24 09:21:37;;;;;;;7.55;6.75;;;29.40;43.20;;;;;;5125097;27;20040;-81
2022/07/24 09:24:14;;;;;;;8.13;6.13;;;29.40;43.80;;;;;;5122188;27;20028;-82
2022/07/24 09:26:44;;;;;;;8.13;6.00;;;29.40;44.10;;;;;;5123535;27;20094;-82
2022/07/24 09:29:12;;;;;;;9.63;6.38;;;29.30;44.10;;;;;;5118275;27;20023;-82
2022/07/24 09:32:00;;;;;;;9.02;6.95;;;29.40;44.30;;;;;;5125730;27;20019;-81
2022/07/24 09:34:28;;;;;;;7.38;6.28;;;29.30;44.30;;;;;;5123936;27;20471;-82
2022/07/24 09:37:02;;;;;;;7.43;6.43;;;29.40;44.10;;;;;;5124029;27;20031;-82
2022/07/24 09:39:31;;;;;;;8.35;7.28;;;29.40;44.20;;;;;;5119730;27;20020;-82
2022/07/24 09:41:58;;;;;;;8.57;7.53;;;29.40;42.90;;;;;;5121169;27;20488;-82
2022/07/24 09:44:25;;;;;;;8.57;6.70;;;29.30;43.30;;;;;;5125825;27;20098;-82
2022/07/24 09:46:59;;;;;;;11.00;7.70;;;29.40;42.70;;;;;;5121328;27;20049;-82
2022/07/24 09:49:25;;;;;;;;;;;29.40;43.00;;;;;;5120962;27;20035;-81
2022/07/24 09:52:10;;;;;;;9.15;7.60;;;29.50;43.80;;;;;;5125012;27;19911;-80
2022/07/24 09:54:41;;;;;;;8.80;6.70;;;29.50;43.30;;;;;;5120078;27;20084;-81
2022/07/24 09:57:22;;;;;;;10.82;8.40;;;29.60;43.30;;;;;;5123546;27;20019;-81
2022/07/24 10:00:03;;;;;;;16.95;12.43;;;29.60;43.40;;;;;;5121130;27;20027;-81
2022/07/24 10:02:30;;;;;;;14.02;10.63;;;29.70;43.30;;;;;;5120931;27;20468;-81
2022/07/24 10:04:58;;;;;;;10.93;9.77;;;29.80;43.00;;;;;;5118915;27;20027;-82
2022/07/24 10:07:25;;;;;;;20.48;17.42;;;29.80;42.50;;;;;;5123899;27;20110;-81
2022/07/24 10:09:54;;;;;;;19.40;15.48;;;29.90;43.10;;;;;;5123731;27;20046;-81
2022/07/24 10:12:29;;;;;;;12.77;11.20;;;30.00;43.10;;;;;;5123331;27;20512;-80
2022/07/24 10:14:57;;;;;;;8.68;7.78;;;30.00;42.40;;;;;;5122723;27;20016;-81
2022/07/24 10:17:34;;;;;;;9.77;6.85;;;30.00;41.10;;;;;;5123836;27;20098;-80
2022/07/24 10:20:04;;;;;;;11.95;6.97;;;30.10;41.10;;;;;;5120886;27;20369;-80
2022/07/24 10:22:47;;;;;;;20.48;18.25;;;30.10;40.60;;;;;;5121481;27;20109;-80
2022/07/24 10:25:21;;;;;;;20.35;17.20;;;30.20;41.50;;;;;;5124089;27;20480;-81
2022/07/24 10:27:52;;;;;;;15.23;11.80;;;30.20;41.40;;;;;;5122669;27;20028;-81
2022/07/24 10:30:18;;;;;;;14.50;11.95;;;30.30;41.40;;;;;;5117735;27;20028;-80
2022/07/24 10:32:46;;;;;;;12.68;11.30;;;30.30;41.30;;;;;;5123350;27;20027;-81
2022/07/24 10:35:14;;;;;;;9.98;8.10;;;30.40;41.40;;;;;;5123203;27;20487;-80
2022/07/24 10:37:51;;;;;;;14.30;11.77;;;30.40;40.90;;;;;;5121470;27;20511;-81
2022/07/24 10:40:44;;;;;;;11.25;9.60;;;30.40;40.90;;;;;;5118347;27;20472;-81
2022/07/24 10:43:12;;;;;;;12.10;9.02;;;30.50;40.50;;;;;;5123381;27;20028;-81
2022/07/24 10:46:03;;;;;;;8.07;6.45;;;30.50;38.80;;;;;;5116234;27;20480;-81
2022/07/24 10:48:32;;;;;;;7.53;6.70;;;30.50;38.70;;;;;;5115199;27;20402;-81
2022/07/24 10:51:05;;;;;;;12.30;6.40;;;30.50;37.80;;;;;;5118909;27;20805;-81
2022/07/24 10:53:37;;;;;;;8.23;6.78;;;30.60;38.70;;;;;;5122689;27;20031;-81
2022/07/24 10:56:16;;;;;;;10.32;8.90;;;30.60;39.10;;;;;;5122888;27;20020;-81
2022/07/24 10:58:58;;;;;;;11.90;9.25;;;30.70;39.40;;;;;;5120625;27;20035;-81
2022/07/24 11:01:28;;;;;;;7.90;7.10;;;30.70;39.40;;;;;;5121566;27;20431;-81
2022/07/24 11:03:54;;;;;;;8.85;7.32;;;30.80;39.00;;;;;;5133125;27;20034;-81
2022/07/24 11:06:45;;;;;;;9.57;7.28;;;30.80;39.10;;;;;;5134039;27;20023;-81
2022/07/24 11:09:12;;;;;;;7.07;6.38;;;30.80;39.50;;;;;;5134510;27;20156;-81
2022/07/24 11:11:51;;;;;;;9.98;7.30;;;30.90;39.10;;;;;;5135540;27;20030;-82
2022/07/24 11:14:38;;;;;;;7.30;6.30;;;31.00;39.10;;;;;;5133144;27;20019;-81
2022/07/24 11:17:35;;;;;;;6.28;5.68;;;31.00;38.70;;;;;;5123038;27;20045;-80
2022/07/24 11:20:03;;;;;;;9.30;6.47;;;31.00;38.30;;;;;;5133943;27;20090;-80
2022/07/24 11:22:53;;;;;;;6.80;6.10;;;31.10;37.50;;;;;;5134079;27;20027;-81
2022/07/24 11:25:24;;;;;;;7.80;6.20;;;31.20;38.70;;;;;;5122824;27;20122;-80
2022/07/24 11:27:58;;;;;;;11.15;6.18;;;31.20;38.20;;;;;;5132816;27;20031;-80
2022/07/24 11:30:29;;;;;;;9.88;6.13;;;31.20;37.90;;;;;;5107124;27;20042;-82
2022/07/24 11:32:57;;;;;;;7.45;5.93;;;31.30;37.70;;;;;;5093099;28;20057;-80
2022/07/24 11:35:41;;;;;;;6.50;5.90;;;31.40;38.00;;;;;;5091803;28;20486;-82
2022/07/24 11:38:07;;;;;;;12.27;5.60;;;31.40;36.80;;;;;;5093064;28;20067;-82
2022/07/24 11:40:35;;;;;;;7.03;5.40;;;31.40;36.50;;;;;;5092950;28;20020;-81
2022/07/24 11:43:05;;;;;;;9.18;5.97;;;31.50;36.30;;;;;;5092970;28;20028;-81
2022/07/24 11:45:31;;;;;;;5.97;5.40;;;31.40;36.20;;;;;;5108754;28;20021;-80
2022/07/24 11:47:58;;;;;;;5.97;5.25;;;31.50;37.00;;;;;;5091545;28;20507;-81
2022/07/24 11:50:25;;;;;;;7.22;6.13;;;31.60;36.90;;;;;;5092917;28;20473;-81
2022/07/24 11:52:51;;;;;;;6.15;5.30;;;31.60;36.90;;;;;;5091440;28;20138;-79
2022/07/24 11:55:19;;;;;;;6.25;5.65;;;31.60;36.50;;;;;;5092769;28;20070;-80
2022/07/24 11:57:48;;;;;;;6.53;5.53;;;31.70;35.50;;;;;;5108402;28;20105;-80
2022/07/24 12:00:20;;;;;;;6.20;5.60;;;31.70;36.40;;;;;;5091742;28;20040;-81
2022/07/24 12:02:51;;;;;;;6.32;5.72;;;31.80;36.00;;;;;;5091562;28;20077;-81
2022/07/24 12:05:28;;;;;;;6.43;5.35;;;31.90;36.00;;;;;;5092842;28;20024;-80
2022/07/24 12:07:59;;;;;;;6.80;5.22;;;31.90;36.20;;;;;;5092876;28;20020;-80
2022/07/24 12:10:26;;;;;;;16.50;5.53;;;32.00;36.40;;;;;;5092786;28;20020;-80
2022/07/24 12:12:54;;;;;;;5.45;4.90;;;32.10;36.10;;;;;;5092897;28;20032;-81
2022/07/24 12:15:21;;;;;;;7.90;5.95;;;32.10;35.20;;;;;;5095532;28;20477;-80
2022/07/24 12:18:00;;;;;;;6.43;5.43;;;32.10;35.40;;;;;;5096684;28;20034;-81
2022/07/24 12:20:33;;;;;;;5.57;5.00;;;32.20;35.40;;;;;;5096384;28;20047;-80
2022/07/24 12:23:01;;;;;;;5.65;4.53;;;32.20;34.90;;;;;;5096737;28;20031;-80
2022/07/24 12:25:29;;;;;;;6.50;5.00;;;32.20;34.70;;;;;;5095316;28;20051;-80
2022/07/24 12:28:21;;;;;;;9.25;5.20;;;32.30;34.10;;;;;;5095272;28;20548;-80
2022/07/24 12:30:52;;;;;;;8.30;4.85;;;32.30;35.00;;;;;;5110683;28;20048;-81
2022/07/24 12:33:24;;;;;;;11.68;5.45;;;32.40;34.30;;;;;;5116841;27;20081;-81
2022/07/24 12:36:16;;;;;;;5.53;4.68;;;32.50;33.50;;;;;;5115508;28;20111;-80
2022/07/24 12:38:50;;;;;;;5.55;4.47;;;32.50;34.40;;;;;;5107627;27;20032;-80
2022/07/24 12:41:25;;;;;;;6.05;4.97;;;32.60;33.80;;;;;;5106928;28;20047;-81
2022/07/24 12:43:57;;;;;;;5.85;4.65;;;32.60;34.10;;;;;;5116255;28;20091;-80
2022/07/24 12:46:29;;;;;;;6.28;5.18;;;32.70;33.50;;;;;;5116250;28;20024;-80
2022/07/24 12:49:07;;;;;;;8.45;4.90;;;32.80;33.40;;;;;;5116352;28;20046;-81
2022/07/24 12:51:51;;;;;;;5.47;4.88;;;32.80;32.90;;;;;;5116235;27;20020;-81